Time;durP1;ratioP1;P1;durP2;ratioP2;P2;SDS_P1;SDS_P2;PMS_P1;PMS_P2;Temp;Humidity;BMP_temperature;BMP_pressure;BME280_temperature;BME280_humidity;BME280_pressure;Samples;Min_cycle;Max_cycle;Signal;HPM_P1;HPM_P2
2023/09/08 00:00:48;;;;;;;6.60;3.58;;;26.50;46.10;;;;;;7571521;23;20060;-79
2023/09/08 00:03:48;;;;;;;7.43;3.40;;;26.40;46.30;;;;;;7572324;23;20116;-79
2023/09/08 00:06:49;;;;;;;4.25;2.78;;;26.40;46.30;;;;;;7574100;23;20026;-79
2023/09/08 00:09:50;;;;;;;7.75;3.22;;;26.40;46.30;;;;;;7573099;23;20145;-79
2023/09/08 00:12:51;;;;;;;8.50;3.38;;;26.40;46.40;;;;;;7549365;23;20010;-78
2023/09/08 00:15:52;;;;;;;4.72;3.13;;;26.40;46.50;;;;;;7598845;23;20061;-78
2023/09/08 00:18:52;;;;;;;6.97;3.28;;;26.40;46.50;;;;;;7573172;23;20130;-79
2023/09/08 00:21:53;;;;;;;4.38;3.13;;;26.40;46.60;;;;;;7548340;23;20096;-78
2023/09/08 00:24:55;;;;;;;7.07;3.63;;;26.40;46.60;;;;;;7549198;23;20016;-78
2023/09/08 00:27:55;;;;;;;5.90;3.00;;;26.40;46.60;;;;;;7598589;23;20033;-78
2023/09/08 00:30:57;;;;;;;8.07;3.45;;;26.40;46.60;;;;;;7598217;23;20037;-78
2023/09/08 00:33:58;;;;;;;9.45;3.55;;;26.40;47.30;;;;;;7597310;23;20673;-78
2023/09/08 00:37:04;;;;;;;5.07;3.10;;;26.40;46.70;;;;;;7571073;23;20092;-80
2023/09/08 00:40:08;;;;;;;7.82;3.28;;;26.40;46.80;;;;;;7595605;23;20017;-78
2023/09/08 00:43:09;;;;;;;7.88;3.55;;;26.40;46.80;;;;;;7596920;23;20715;-78
2023/09/08 00:46:11;;;;;;;5.20;3.10;;;26.40;46.80;;;;;;7572381;23;20129;-78
2023/09/08 00:49:12;;;;;;;3.95;2.90;;;26.40;46.80;;;;;;7596880;23;20014;-79
2023/09/08 00:52:14;;;;;;;5.60;3.00;;;26.40;46.80;;;;;;7599213;23;20025;-79
2023/09/08 00:55:14;;;;;;;8.07;3.45;;;26.40;46.80;;;;;;7572830;23;20017;-80
2023/09/08 00:58:15;;;;;;;4.63;3.25;;;26.40;47.00;;;;;;7572072;23;20017;-79
2023/09/08 01:01:17;;;;;;;6.18;3.10;;;26.30;47.10;;;;;;7572049;23;20404;-78
2023/09/08 01:04:18;;;;;;;5.00;3.35;;;26.30;47.10;;;;;;7572414;23;20114;-78
2023/09/08 01:07:20;;;;;;;6.30;3.22;;;26.30;47.20;;;;;;7548769;23;20023;-79
2023/09/08 01:10:21;;;;;;;10.48;3.30;;;26.20;47.40;;;;;;7572042;23;20018;-78
2023/09/08 01:13:22;;;;;;;5.25;3.33;;;26.20;47.50;;;;;;7598769;23;20018;-80
2023/09/08 01:16:22;;;;;;;5.97;3.35;;;26.20;47.60;;;;;;7599500;23;20010;-78
2023/09/08 01:19:24;;;;;;;6.85;3.30;;;26.10;47.60;;;;;;7572795;23;20092;-78
2023/09/08 01:22:32;;;;;;;7.43;4.28;;;26.10;47.60;;;;;;7598772;23;20010;-78
2023/09/08 01:25:37;;;;;;;6.15;3.63;;;26.10;47.90;;;;;;7573235;23;20077;-79
2023/09/08 01:28:40;;;;;;;6.47;3.30;;;26.00;47.90;;;;;;7572944;23;20426;-78
2023/09/08 01:31:41;;;;;;;5.15;3.78;;;26.00;47.90;;;;;;7571626;23;20081;-78
2023/09/08 01:34:42;;;;;;;5.97;3.88;;;26.00;48.10;;;;;;7597480;23;20408;-78
2023/09/08 01:37:47;;;;;;;9.88;3.53;;;26.00;48.20;;;;;;7572273;23;20013;-77
2023/09/08 01:40:50;;;;;;;5.63;3.42;;;26.00;48.30;;;;;;7598308;23;20010;-78
2023/09/08 01:43:50;;;;;;;8.43;3.55;;;26.00;48.30;;;;;;7573077;23;20025;-78
2023/09/08 01:46:56;;;;;;;9.88;3.78;;;26.00;48.40;;;;;;7572702;23;20081;-78
2023/09/08 01:49:57;;;;;;;4.07;3.33;;;26.00;48.40;;;;;;7572132;23;20021;-79
2023/09/08 01:52:58;;;;;;;4.13;3.38;;;25.90;48.40;;;;;;7596679;23;20561;-78
2023/09/08 01:55:59;;;;;;;5.57;3.58;;;25.90;48.40;;;;;;7598905;23;20006;-78
2023/09/08 01:58:59;;;;;;;8.27;3.85;;;25.90;49.10;;;;;;7572341;23;20056;-79
2023/09/08 02:02:01;;;;;;;5.75;3.70;;;25.90;48.60;;;;;;7570853;23;20010;-78
2023/09/08 02:05:03;;;;;;;9.27;3.67;;;25.90;48.70;;;;;;7570835;23;20017;-78
2023/09/08 02:08:04;;;;;;;4.55;3.47;;;25.80;48.60;;;;;;7571628;23;20020;-78
2023/09/08 02:11:07;;;;;;;7.80;3.75;;;25.70;48.70;;;;;;7599935;23;20017;-78
2023/09/08 02:14:08;;;;;;;5.13;3.20;;;25.70;48.80;;;;;;7575072;23;20022;-78
2023/09/08 02:17:09;;;;;;;4.70;3.33;;;25.60;48.90;;;;;;7550420;23;20018;-79
2023/09/08 02:20:10;;;;;;;4.32;3.20;;;25.50;48.90;;;;;;7573631;23;20363;-79
2023/09/08 02:23:11;;;;;;;7.72;3.60;;;25.50;49.10;;;;;;7574344;23;20073;-79
2023/09/08 02:26:13;;;;;;;4.57;3.40;;;25.50;49.10;;;;;;7600728;23;20081;-79
2023/09/08 02:29:14;;;;;;;8.80;3.50;;;25.50;49.20;;;;;;7573743;23;20025;-78
2023/09/08 02:32:16;;;;;;;4.93;3.40;;;25.50;49.40;;;;;;7573567;23;20062;-80
2023/09/08 02:35:17;;;;;;;7.07;3.35;;;25.50;49.50;;;;;;7572504;23;20014;-78
2023/09/08 02:38:18;;;;;;;6.57;3.85;;;25.40;49.60;;;;;;7573291;23;20332;-79
2023/09/08 02:41:19;;;;;;;5.43;3.55;;;25.40;49.70;;;;;;7547605;23;20017;-78
2023/09/08 02:44:21;;;;;;;6.72;4.10;;;25.40;49.80;;;;;;7573401;23;20010;-79
2023/09/08 02:47:23;;;;;;;7.32;3.90;;;25.40;49.80;;;;;;7596526;23;20587;-78
2023/09/08 02:50:24;;;;;;;8.15;3.92;;;25.40;49.90;;;;;;7547893;23;20017;-79
2023/09/08 02:53:28;;;;;;;5.05;3.42;;;25.40;49.80;;;;;;7571095;23;20470;-79
2023/09/08 02:56:30;;;;;;;5.45;3.80;;;25.40;49.80;;;;;;7597507;23;20052;-79
2023/09/08 02:59:31;;;;;;;4.30;3.22;;;25.40;49.80;;;;;;7572210;23;20085;-79
2023/09/08 03:02:32;;;;;;;11.77;3.60;;;25.30;49.80;;;;;;7550219;23;20020;-80
2023/09/08 03:05:33;;;;;;;4.93;3.70;;;25.30;49.90;;;;;;7550586;23;20737;-78
2023/09/08 03:08:36;;;;;;;11.15;4.22;;;25.30;49.90;;;;;;7574478;23;20725;-78
2023/09/08 03:11:38;;;;;;;8.30;3.90;;;25.20;50.00;;;;;;7573874;23;20040;-79
2023/09/08 03:14:39;;;;;;;11.73;3.97;;;25.20;50.20;;;;;;7573061;23;20013;-79
2023/09/08 03:17:41;;;;;;;9.00;3.95;;;25.20;50.30;;;;;;7573751;23;20014;-79
2023/09/08 03:20:43;;;;;;;5.68;4.13;;;25.10;50.40;;;;;;7600471;23;20455;-79
2023/09/08 03:23:46;;;;;;;14.55;3.47;;;25.10;50.40;;;;;;7599858;23;20188;-78
2023/09/08 03:26:47;;;;;;;5.72;3.60;;;25.10;50.40;;;;;;7574460;23;20367;-78
2023/09/08 03:29:48;;;;;;;6.90;3.60;;;25.10;50.40;;;;;;7572561;23;20115;-79
2023/09/08 03:32:48;;;;;;;6.85;3.88;;;25.10;50.50;;;;;;7574465;23;20298;-78
2023/09/08 03:35:49;;;;;;;5.90;4.10;;;25.00;50.40;;;;;;7573579;23;20087;-79
2023/09/08 03:38:50;;;;;;;7.63;3.83;;;25.00;50.40;;;;;;7573701;23;20447;-79
2023/09/08 03:41:51;;;;;;;12.90;4.43;;;25.00;50.40;;;;;;7574269;23;20474;-79
2023/09/08 03:44:52;;;;;;;6.18;3.88;;;25.00;50.50;;;;;;7600868;23;20006;-78
2023/09/08 03:47:53;;;;;;;7.85;4.38;;;24.90;50.50;;;;;;7574228;23;20010;-78
2023/09/08 03:50:54;;;;;;;8.52;4.18;;;24.90;50.60;;;;;;7572971;23;20088;-78
2023/09/08 03:53:54;;;;;;;9.60;3.75;;;24.90;50.60;;;;;;7573061;23;20105;-80
2023/09/08 03:56:55;;;;;;;5.60;3.78;;;24.90;50.90;;;;;;7573843;23;20025;-79
2023/09/08 03:59:56;;;;;;;6.10;3.55;;;24.90;51.00;;;;;;7599409;23;20443;-79
2023/09/08 04:02:57;;;;;;;6.60;3.95;;;24.90;51.10;;;;;;7600294;23;20135;-79
2023/09/08 04:05:58;;;;;;;9.07;3.45;;;24.90;51.30;;;;;;7572284;23;20013;-78
2023/09/08 04:08:59;;;;;;;8.82;3.58;;;24.80;51.30;;;;;;7573003;23;20502;-78
2023/09/08 04:12:01;;;;;;;11.23;3.85;;;24.80;51.40;;;;;;7571981;23;20017;-79
2023/09/08 04:15:02;;;;;;;8.43;4.13;;;24.80;51.50;;;;;;7573176;23;20092;-79
2023/09/08 04:18:03;;;;;;;8.18;4.03;;;24.70;51.40;;;;;;7599800;23;20498;-79
2023/09/08 04:21:07;;;;;;;7.20;4.53;;;24.70;51.50;;;;;;7572393;23;20010;-78
2023/09/08 04:24:10;;;;;;;8.52;3.67;;;24.70;51.50;;;;;;7572364;23;20014;-78
2023/09/08 04:27:11;;;;;;;6.20;4.00;;;24.70;51.60;;;;;;7571253;23;20006;-78
2023/09/08 04:30:12;;;;;;;7.72;3.90;;;24.70;51.70;;;;;;7598732;23;20005;-78
2023/09/08 04:33:13;;;;;;;6.45;4.00;;;24.70;51.80;;;;;;7598089;23;20040;-78
2023/09/08 04:36:15;;;;;;;9.25;4.00;;;24.70;51.80;;;;;;7547975;23;20109;-78
2023/09/08 04:39:16;;;;;;;9.65;3.95;;;24.70;51.90;;;;;;7599451;23;20084;-80
2023/09/08 04:42:17;;;;;;;7.90;3.92;;;24.60;52.00;;;;;;7572134;23;20064;-78
2023/09/08 04:45:18;;;;;;;9.02;3.92;;;24.70;52.10;;;;;;7596500;23;20351;-79
2023/09/08 04:48:19;;;;;;;5.78;4.18;;;24.70;52.30;;;;;;7572477;23;20339;-78
2023/09/08 04:51:20;;;;;;;7.85;3.88;;;24.70;52.40;;;;;;7571896;23;20092;-78
2023/09/08 04:54:22;;;;;;;6.32;4.07;;;24.70;52.60;;;;;;7572468;23;20092;-78
2023/09/08 04:57:23;;;;;;;10.43;3.85;;;24.70;52.70;;;;;;7548297;23;20108;-79
2023/09/08 05:00:27;;;;;;;5.28;3.65;;;24.60;52.90;;;;;;7571052;23;20029;-78
2023/09/08 05:03:30;;;;;;;6.82;4.18;;;24.50;52.80;;;;;;7596903;23;20340;-78
2023/09/08 05:06:31;;;;;;;11.80;4.20;;;24.50;52.90;;;;;;7571923;23;20006;-78
2023/09/08 05:09:33;;;;;;;6.20;3.95;;;24.50;53.00;;;;;;7548629;23;20069;-78
2023/09/08 05:12:35;;;;;;;6.22;4.20;;;24.50;53.10;;;;;;7547944;23;20640;-78
2023/09/08 05:15:36;;;;;;;7.13;3.95;;;24.50;53.10;;;;;;7569954;23;20304;-78
2023/09/08 05:18:41;;;;;;;6.32;3.40;;;24.50;53.20;;;;;;7571029;23;20018;-80
2023/09/08 05:21:43;;;;;;;16.95;4.10;;;24.50;53.40;;;;;;7571921;23;20010;-79
2023/09/08 05:24:47;;;;;;;8.13;4.00;;;24.40;53.40;;;;;;7598557;23;20211;-79
2023/09/08 05:27:49;;;;;;;11.18;4.50;;;24.50;53.60;;;;;;7572128;23;20424;-79
2023/09/08 05:30:53;;;;;;;10.25;4.40;;;24.50;53.60;;;;;;7570771;23;20128;-78
2023/09/08 05:33:55;;;;;;;6.18;3.95;;;24.50;53.70;;;;;;7572340;23;20021;-77
2023/09/08 05:36:56;;;;;;;6.63;4.35;;;24.40;53.60;;;;;;7571715;23;20014;-79
2023/09/08 05:39:57;;;;;;;10.30;4.50;;;24.50;53.60;;;;;;7571952;23;20259;-78
2023/09/08 05:42:58;;;;;;;8.52;4.95;;;24.40;53.50;;;;;;7571756;23;20077;-79
2023/09/08 05:45:59;;;;;;;7.22;4.05;;;24.40;53.50;;;;;;7572726;23;20017;-79
2023/09/08 05:49:00;;;;;;;7.53;4.60;;;24.40;53.50;;;;;;7574720;23;20080;-78
2023/09/08 05:52:02;;;;;;;18.08;5.05;;;24.40;53.40;;;;;;7573887;23;20052;-78
2023/09/08 05:55:04;;;;;;;83.05;8.20;;;24.40;53.30;;;;;;7575011;23;20113;-80
2023/09/08 05:58:07;;;;;;;8.98;4.65;;;24.50;53.30;;;;;;7574012;23;20490;-78
2023/09/08 06:01:08;;;;;;;11.00;4.82;;;24.50;53.20;;;;;;7550775;23;20018;-79
2023/09/08 06:04:09;;;;;;;8.70;4.60;;;24.70;53.40;;;;;;7574264;23;20017;-79
2023/09/08 06:07:11;;;;;;;7.63;4.53;;;24.50;53.30;;;;;;7597472;23;20010;-79
2023/09/08 06:10:12;;;;;;;7.75;4.15;;;24.50;53.30;;;;;;7574659;23;20016;-80
2023/09/08 06:13:13;;;;;;;6.25;3.97;;;24.60;53.10;;;;;;7601386;23;20495;-80
2023/09/08 06:16:16;;;;;;;14.73;3.88;;;24.60;52.60;;;;;;7575113;23;20014;-79
2023/09/08 06:19:17;;;;;;;13.63;4.18;;;24.60;52.30;;;;;;7574514;23;20036;-78
2023/09/08 06:22:18;;;;;;;19.58;4.38;;;24.60;52.20;;;;;;7548921;23;20032;-79
2023/09/08 06:25:19;;;;;;;17.02;4.75;;;24.60;52.10;;;;;;7573629;23;20016;-79
2023/09/08 06:28:20;;;;;;;9.48;4.35;;;24.60;52.00;;;;;;7573047;23;20010;-77
2023/09/08 06:31:21;;;;;;;7.43;4.57;;;24.70;51.80;;;;;;7572464;23;20041;-78
2023/09/08 06:34:22;;;;;;;12.15;4.50;;;24.60;51.70;;;;;;7573670;23;20137;-80
2023/09/08 06:37:24;;;;;;;6.35;4.03;;;24.70;51.70;;;;;;7573346;23;20041;-79
2023/09/08 06:40:25;;;;;;;7.00;4.18;;;24.70;51.70;;;;;;7574073;23;20010;-77
2023/09/08 06:43:26;;;;;;;8.68;4.07;;;24.70;51.50;;;;;;7598814;23;20006;-79
2023/09/08 06:46:38;;;;;;;12.27;5.13;;;24.70;51.40;;;;;;7574384;23;20013;-77
2023/09/08 06:49:41;;;;;;;20.00;4.60;;;24.80;51.40;;;;;;7574691;23;20043;-79
2023/09/08 06:52:42;;;;;;;9.77;5.43;;;24.80;51.40;;;;;;7574249;23;20010;-79
2023/09/08 06:55:43;;;;;;;14.27;5.30;;;24.90;51.30;;;;;;7573921;23;20010;-80
2023/09/08 06:58:44;;;;;;;12.63;5.25;;;24.90;51.30;;;;;;7601214;23;20094;-80
2023/09/08 07:01:44;;;;;;;12.63;5.25;;;25.00;51.30;;;;;;7574139;23;20010;-79
2023/09/08 07:04:46;;;;;;;11.18;4.78;;;25.00;51.20;;;;;;7574019;23;20020;-80
2023/09/08 07:07:47;;;;;;;9.23;5.03;;;25.00;51.20;;;;;;7574016;23;20010;-78
2023/09/08 07:10:53;;;;;;;18.02;5.00;;;25.10;51.40;;;;;;7575209;23;20021;-78
2023/09/08 07:13:54;;;;;;;7.95;5.00;;;25.20;51.20;;;;;;7576142;23;20010;-85
2023/09/08 07:16:55;;;;;;;10.00;5.18;;;25.30;51.30;;;;;;7577721;23;20631;-84
2023/09/08 07:19:56;;;;;;;20.52;5.00;;;25.40;51.30;;;;;;7576783;23;20069;-83
2023/09/08 07:22:57;;;;;;;9.68;5.45;;;25.50;51.30;;;;;;7577078;23;20323;-84
2023/09/08 07:25:59;;;;;;;13.80;5.20;;;25.50;51.20;;;;;;7576470;23;20196;-84
2023/09/08 07:29:04;;;;;;;9.05;4.90;;;25.70;51.30;;;;;;7577534;23;20020;-84
2023/09/08 07:32:06;;;;;;;8.57;5.25;;;25.70;51.20;;;;;;7573793;23;20403;-80
2023/09/08 07:35:13;;;;;;;7.80;4.78;;;25.80;51.10;;;;;;7571671;23;20017;-79
2023/09/08 07:38:15;;;;;;;13.52;5.43;;;25.90;50.90;;;;;;7573777;23;20104;-79
2023/09/08 07:41:15;;;;;;;8.77;5.00;;;26.10;50.80;;;;;;7574535;23;20085;-78
2023/09/08 07:44:17;;;;;;;6.95;4.82;;;26.20;50.50;;;;;;7574073;23;20014;-81
2023/09/08 07:47:18;;;;;;;15.13;5.28;;;26.40;50.20;;;;;;7573541;23;20010;-79
2023/09/08 07:50:24;;;;;;;10.02;4.95;;;26.50;50.00;;;;;;7574065;23;20406;-78
2023/09/08 07:53:28;;;;;;;13.05;4.60;;;26.60;49.80;;;;;;7572686;23;20061;-79
2023/09/08 07:56:29;;;;;;;8.35;4.60;;;26.80;49.60;;;;;;7572950;23;20110;-79
2023/09/08 07:59:30;;;;;;;9.27;4.72;;;26.90;49.20;;;;;;7599204;23;20031;-78
2023/09/08 08:02:31;;;;;;;7.20;4.43;;;27.10;48.90;;;;;;7572427;23;20045;-79
2023/09/08 08:05:32;;;;;;;8.43;4.72;;;27.20;48.50;;;;;;7548747;23;20112;-80
2023/09/08 08:08:38;;;;;;;10.07;4.72;;;27.30;48.20;;;;;;7572427;23;20006;-80
2023/09/08 08:11:38;;;;;;;8.18;4.47;;;27.50;48.00;;;;;;7597205;23;20399;-80
2023/09/08 08:14:39;;;;;;;7.80;4.53;;;27.70;47.60;;;;;;7599962;23;20097;-80
2023/09/08 08:17:40;;;;;;;7.97;4.72;;;27.80;47.20;;;;;;7598827;23;20112;-80
2023/09/08 08:20:41;;;;;;;11.50;4.10;;;28.00;46.80;;;;;;7571395;23;20073;-79
2023/09/08 08:23:42;;;;;;;6.93;4.45;;;28.10;46.50;;;;;;7599242;23;20032;-80
2023/09/08 08:26:43;;;;;;;9.80;4.70;;;28.20;46.10;;;;;;7599666;23;20077;-78
2023/09/08 08:29:43;;;;;;;8.00;4.38;;;28.30;45.80;;;;;;7570815;23;20006;-79
2023/09/08 08:32:45;;;;;;;9.43;4.07;;;28.40;45.30;;;;;;7598011;23;20010;-78
2023/09/08 08:35:50;;;;;;;6.47;3.83;;;28.40;45.00;;;;;;7595968;23;20013;-78
2023/09/08 08:38:51;;;;;;;10.20;4.50;;;28.50;44.90;;;;;;7597742;23;20010;-79
2023/09/08 08:41:52;;;;;;;6.70;4.40;;;28.60;44.60;;;;;;7597279;23;20001;-79
2023/09/08 08:44:53;;;;;;;11.52;4.53;;;28.60;44.50;;;;;;7598512;23;20048;-79
2023/09/08 08:47:54;;;;;;;12.00;4.38;;;28.60;44.50;;;;;;7572012;23;20037;-79
2023/09/08 08:50:56;;;;;;;7.22;4.07;;;28.70;44.40;;;;;;7571541;23;20029;-79
2023/09/08 08:53:57;;;;;;;7.95;4.32;;;28.80;44.20;;;;;;7572356;23;20097;-80
2023/09/08 08:57:00;;;;;;;8.68;4.93;;;28.90;43.90;;;;;;7571261;23;20066;-78
2023/09/08 09:00:01;;;;;;;8.05;4.97;;;29.00;43.70;;;;;;7596404;23;20021;-79
2023/09/08 09:03:04;;;;;;;5.43;4.10;;;29.20;43.60;;;;;;7597743;23;20037;-78
2023/09/08 09:06:05;;;;;;;14.30;5.18;;;29.30;43.40;;;;;;7598499;23;20006;-78
2023/09/08 09:09:07;;;;;;;6.93;4.22;;;29.40;43.20;;;;;;7597998;23;20341;-78
2023/09/08 09:12:08;;;;;;;8.73;4.03;;;29.40;42.90;;;;;;7547627;23;20153;-77
2023/09/08 09:15:11;;;;;;;6.15;3.83;;;29.50;42.80;;;;;;7571492;23;20010;-79
2023/09/08 09:18:12;;;;;;;7.00;3.92;;;29.60;42.70;;;;;;7597316;23;20009;-77
2023/09/08 09:21:13;;;;;;;5.75;4.18;;;29.60;42.40;;;;;;7571715;23;20005;-78
2023/09/08 09:24:15;;;;;;;8.52;4.43;;;29.70;42.20;;;;;;7598892;23;20600;-79
2023/09/08 09:27:16;;;;;;;6.63;4.22;;;29.80;42.20;;;;;;7548953;23;20017;-79
2023/09/08 09:30:18;;;;;;;12.60;4.57;;;29.80;42.10;;;;;;7597171;23;20708;-77
2023/09/08 09:33:20;;;;;;;10.32;4.10;;;29.90;41.90;;;;;;7598484;23;20053;-78
2023/09/08 09:36:21;;;;;;;5.35;3.92;;;30.00;41.60;;;;;;7571025;23;20014;-78
2023/09/08 09:39:24;;;;;;;9.23;4.22;;;30.10;41.40;;;;;;7571211;23;20300;-78
2023/09/08 09:42:28;;;;;;;12.40;4.68;;;30.10;41.30;;;;;;7599222;23;20025;-79
2023/09/08 09:45:29;;;;;;;8.88;4.15;;;30.20;41.30;;;;;;7572347;23;20009;-77
2023/09/08 09:48:31;;;;;;;7.22;4.82;;;30.20;41.20;;;;;;7571684;23;20014;-77
2023/09/08 09:51:32;;;;;;;8.60;4.18;;;30.30;41.00;;;;;;7572231;23;20097;-79
2023/09/08 09:54:33;;;;;;;9.13;4.32;;;30.30;41.00;;;;;;7572012;23;20033;-78
2023/09/08 09:57:36;;;;;;;8.02;3.92;;;30.40;40.80;;;;;;7600472;23;20070;-80
2023/09/08 10:00:41;;;;;;;10.40;3.90;;;30.40;40.70;;;;;;7572104;23;20016;-79
2023/09/08 10:03:42;;;;;;;6.53;3.88;;;30.60;40.60;;;;;;7599390;23;20073;-78
2023/09/08 10:06:44;;;;;;;6.28;3.95;;;30.60;40.40;;;;;;7572420;23;20277;-79
2023/09/08 10:09:46;;;;;;;6.00;3.85;;;30.70;40.20;;;;;;7572660;23;20017;-79
2023/09/08 10:12:54;;;;;;;9.90;4.22;;;30.80;40.20;;;;;;7596958;23;20030;-78
2023/09/08 10:15:58;;;;;;;12.85;4.22;;;30.90;39.90;;;;;;7600349;23;20010;-79
2023/09/08 10:19:03;;;;;;;4.97;3.47;;;30.90;39.60;;;;;;7573672;23;20021;-78
2023/09/08 10:22:06;;;;;;;13.52;4.45;;;31.00;39.30;;;;;;7571516;23;20060;-79
2023/09/08 10:25:08;;;;;;;16.05;3.83;;;31.00;39.10;;;;;;7572097;23;20454;-80
2023/09/08 10:28:10;;;;;;;10.45;3.72;;;31.00;38.90;;;;;;7571326;23;20100;-78
2023/09/08 10:31:12;;;;;;;12.00;3.90;;;31.10;38.80;;;;;;7570760;23;20017;-78
2023/09/08 10:34:13;;;;;;;10.27;4.05;;;31.00;38.30;;;;;;7572943;23;20072;-79
2023/09/08 10:37:25;;;;;;;8.68;4.25;;;31.10;38.30;;;;;;7598519;23;20037;-78
2023/09/08 10:40:27;;;;;;;14.38;3.67;;;31.20;38.00;;;;;;7573405;23;20823;-80
2023/09/08 10:43:28;;;;;;;7.70;3.30;;;31.50;37.50;;;;;;7571844;23;20025;-79
2023/09/08 10:46:31;;;;;;;4.65;3.10;;;31.70;36.90;;;;;;7546915;23;20010;-79
2023/09/08 10:49:35;;;;;;;7.47;3.40;;;32.00;36.30;;;;;;7570933;23;20343;-79
2023/09/08 10:52:36;;;;;;;6.78;4.03;;;32.40;35.70;;;;;;7570745;23;20457;-79
2023/09/08 10:55:43;;;;;;;7.65;3.35;;;32.60;34.70;;;;;;7598900;23;20018;-79
2023/09/08 10:58:48;;;;;;;4.65;2.90;;;33.00;34.10;;;;;;7572915;23;20041;-80
2023/09/08 11:01:48;;;;;;;6.60;2.70;;;33.30;32.90;;;;;;7595939;23;20024;-79
2023/09/08 11:04:51;;;;;;;6.35;2.47;;;33.50;32.20;;;;;;7598858;23;20010;-79
2023/09/08 11:07:54;;;;;;;5.95;2.40;;;33.80;31.90;;;;;;7600416;23;20055;-81
2023/09/08 11:10:56;;;;;;;3.42;2.28;;;34.10;31.10;;;;;;7571220;23;20069;-80
2023/09/08 11:13:57;;;;;;;7.45;2.55;;;34.30;30.00;;;;;;7570476;23;20462;-79
2023/09/08 11:16:58;;;;;;;9.32;2.75;;;34.60;29.50;;;;;;7570596;23;20141;-79
2023/09/08 11:19:59;;;;;;;4.43;2.55;;;34.70;29.20;;;;;;7595973;23;20039;-79
2023/09/08 11:23:00;;;;;;;6.32;2.80;;;34.90;29.00;;;;;;7599396;23;20065;-79
2023/09/08 11:26:01;;;;;;;6.70;2.30;;;35.10;28.50;;;;;;7572074;23;20009;-78
2023/09/08 11:29:03;;;;;;;5.03;2.10;;;35.30;28.00;;;;;;7594915;23;20021;-79
2023/09/08 11:32:04;;;;;;;13.88;2.60;;;35.50;27.80;;;;;;7569605;23;20090;-78
2023/09/08 11:35:09;;;;;;;5.32;2.42;;;35.60;27.10;;;;;;7596540;23;20407;-80
2023/09/08 11:38:11;;;;;;;5.13;2.30;;;35.70;27.10;;;;;;7571691;23;20104;-79
2023/09/08 11:41:12;;;;;;;9.73;2.67;;;35.80;26.90;;;;;;7569837;23;20014;-80
2023/09/08 11:44:17;;;;;;;3.42;2.25;;;36.10;26.90;;;;;;7597338;23;20010;-79
2023/09/08 11:47:18;;;;;;;4.85;2.35;;;36.20;26.80;;;;;;7569303;23;20086;-79
2023/09/08 11:50:19;;;;;;;4.53;2.92;;;36.40;26.50;;;;;;7569529;23;20099;-78
2023/09/08 11:53:24;;;;;;;12.65;2.40;;;36.60;26.60;;;;;;7569181;23;20018;-79
2023/09/08 11:56:25;;;;;;;5.75;1.90;;;36.90;26.40;;;;;;7571713;23;20313;-81
2023/09/08 11:59:30;;;;;;;3.55;2.22;;;37.20;26.30;;;;;;7595944;23;20021;-80
2023/09/08 12:02:37;;;;;;;2.70;2.25;;;37.40;26.10;;;;;;7595964;23;20021;-80
2023/09/08 12:05:39;;;;;;;3.00;2.47;;;37.60;25.90;;;;;;7596376;23;20012;-80
2023/09/08 12:08:40;;;;;;;8.10;2.22;;;37.90;25.70;;;;;;7595739;23;20024;-80
2023/09/08 12:11:42;;;;;;;12.43;2.83;;;38.20;25.30;;;;;;7569445;23;20096;-79
2023/09/08 12:14:43;;;;;;;2.88;2.13;;;38.50;25.30;;;;;;7569357;23;20010;-80
2023/09/08 12:17:49;;;;;;;3.58;2.33;;;38.90;24.90;;;;;;7595587;23;20389;-79
2023/09/08 12:21:04;;;;;;;4.60;2.20;;;39.30;24.50;;;;;;7594790;23;20013;-79
2023/09/08 12:24:06;;;;;;;8.70;2.45;;;39.80;24.10;;;;;;7595663;23;20042;-79
2023/09/08 12:27:06;;;;;;;4.53;2.38;;;40.20;23.80;;;;;;7569031;23;20014;-80
2023/09/08 12:30:08;;;;;;;8.00;2.60;;;40.70;23.10;;;;;;7570324;23;20006;-79
2023/09/08 12:33:14;;;;;;;2.53;2.33;;;41.20;22.80;;;;;;7568612;23;20039;-79
2023/09/08 12:36:19;;;;;;;3.10;2.15;;;41.80;22.40;;;;;;7568912;23;20038;-78
2023/09/08 12:39:20;;;;;;;2.90;2.60;;;42.50;21.60;;;;;;7594828;23;20447;-79
2023/09/08 12:42:21;;;;;;;2.60;2.15;;;42.90;20.90;;;;;;7595820;23;20013;-79
2023/09/08 12:45:23;;;;;;;4.80;2.20;;;43.00;20.60;;;;;;7597716;23;20108;-79
2023/09/08 12:48:24;;;;;;;7.55;2.20;;;43.40;20.40;;;;;;7594133;23;20083;-79
2023/09/08 12:51:25;;;;;;;12.15;2.30;;;43.80;20.10;;;;;;7568032;23;20794;-76
2023/09/08 12:54:26;;;;;;;5.05;1.88;;;44.10;19.70;;;;;;7593500;23;20113;-79
2023/09/08 12:57:27;;;;;;;3.78;2.17;;;44.40;19.60;;;;;;7569126;23;20431;-80
2023/09/08 13:00:28;;;;;;;4.30;2.25;;;44.50;19.10;;;;;;7569299;23;20053;-79
2023/09/08 13:03:29;;;;;;;2.72;1.88;;;44.70;18.90;;;;;;7569526;23;20009;-79
2023/09/08 13:06:32;;;;;;;3.65;2.00;;;44.90;18.60;;;;;;7567591;23;20044;-79
2023/09/08 13:09:33;;;;;;;4.00;2.30;;;45.00;18.60;;;;;;7594973;23;20014;-79
2023/09/08 13:12:34;;;;;;;3.97;2.00;;;45.20;18.50;;;;;;7594717;23;20096;-79
2023/09/08 13:15:35;;;;;;;4.55;2.47;;;45.10;18.30;;;;;;7568405;23;20017;-80
2023/09/08 13:18:38;;;;;;;3.00;1.90;;;44.90;18.30;;;;;;7595252;23;20052;-78
2023/09/08 13:21:39;;;;;;;4.50;2.20;;;44.70;18.30;;;;;;7570028;23;20006;-80
2023/09/08 13:24:40;;;;;;;3.60;2.00;;;44.90;18.50;;;;;;7595063;23;20090;-78
2023/09/08 13:27:42;;;;;;;4.85;2.50;;;45.30;18.40;;;;;;7594762;23;20310;-79
2023/09/08 13:30:43;;;;;;;4.68;2.25;;;45.50;18.20;;;;;;7567581;23;20006;-79
2023/09/08 13:33:44;;;;;;;2.47;2.00;;;45.80;18.40;;;;;;7592915;23;20013;-77
2023/09/08 13:36:45;;;;;;;2.70;2.10;;;46.20;17.90;;;;;;7566924;23;20057;-78
2023/09/08 13:39:45;;;;;;;3.83;1.88;;;46.20;17.60;;;;;;7592612;23;20017;-78
2023/09/08 13:42:47;;;;;;;4.20;2.22;;;46.20;17.60;;;;;;7566335;23;20447;-79
2023/09/08 13:45:48;;;;;;;4.25;2.40;;;45.90;18.30;;;;;;7593269;23;20447;-79
2023/09/08 13:48:48;;;;;;;4.43;2.00;;;44.90;18.50;;;;;;7570857;23;20013;-79
2023/09/08 13:51:52;;;;;;;5.72;2.25;;;43.80;19.30;;;;;;7568589;23;20006;-78
2023/09/08 13:54:52;;;;;;;3.50;2.17;;;42.70;20.20;;;;;;7568513;23;20423;-80
2023/09/08 13:57:53;;;;;;;3.17;2.30;;;41.70;21.00;;;;;;7568281;23;20024;-78
2023/09/08 14:00:54;;;;;;;3.22;2.58;;;40.70;21.60;;;;;;7592116;23;20009;-76
2023/09/08 14:03:56;;;;;;;4.00;2.10;;;39.80;22.40;;;;;;7567115;23;20348;-78
2023/09/08 14:06:57;;;;;;;5.22;2.33;;;39.00;23.10;;;;;;7570644;23;20085;-79
2023/09/08 14:09:57;;;;;;;3.55;2.42;;;38.30;23.70;;;;;;7546432;23;20016;-79
2023/09/08 14:12:58;;;;;;;8.15;2.53;;;37.70;24.30;;;;;;7569176;23;20014;-80
2023/09/08 14:15:59;;;;;;;6.65;2.67;;;37.20;24.90;;;;;;7569793;23;20030;-78
2023/09/08 14:19:00;;;;;;;5.80;2.10;;;36.70;25.30;;;;;;7600075;23;20009;-78
2023/09/08 14:22:01;;;;;;;5.78;2.65;;;36.40;25.70;;;;;;7572022;23;20054;-78
2023/09/08 14:25:03;;;;;;;3.05;2.35;;;36.10;26.00;;;;;;7572770;23;20009;-82
2023/09/08 14:28:04;;;;;;;6.20;2.55;;;35.90;26.30;;;;;;7597759;23;20050;-78
2023/09/08 14:31:05;;;;;;;11.82;2.88;;;35.70;26.60;;;;;;7595688;23;20006;-78
2023/09/08 14:34:06;;;;;;;4.25;2.78;;;35.60;26.90;;;;;;7596177;23;20108;-78
2023/09/08 14:37:07;;;;;;;5.78;2.58;;;35.40;27.20;;;;;;7597410;23;20478;-77
2023/09/08 14:40:09;;;;;;;3.45;2.22;;;35.20;27.40;;;;;;7598063;23;20014;-79
2023/09/08 14:43:10;;;;;;;3.53;2.65;;;35.10;27.50;;;;;;7597522;23;20068;-78
2023/09/08 14:46:10;;;;;;;7.30;2.28;;;35.10;27.70;;;;;;7594994;23;20029;-79
2023/09/08 14:49:14;;;;;;;6.30;2.67;;;35.00;27.90;;;;;;7568766;23;20060;-81
2023/09/08 14:52:16;;;;;;;4.72;2.50;;;34.80;28.10;;;;;;7572441;23;20096;-80
2023/09/08 14:55:17;;;;;;;4.57;2.53;;;34.70;28.20;;;;;;7571376;23;20014;-79
2023/09/08 14:58:18;;;;;;;8.43;2.42;;;34.70;28.30;;;;;;7569289;23;20194;-78
2023/09/08 15:01:19;;;;;;;4.60;2.53;;;34.70;28.40;;;;;;7595161;23;20017;-78
2023/09/08 15:04:20;;;;;;;5.60;2.30;;;34.60;28.50;;;;;;7594162;23;20006;-79
2023/09/08 15:07:21;;;;;;;3.72;2.63;;;34.50;28.50;;;;;;7597033;23;20013;-78
2023/09/08 15:10:21;;;;;;;6.82;2.15;;;34.60;28.70;;;;;;7568475;23;20451;-79
2023/09/08 15:13:23;;;;;;;4.85;2.67;;;34.50;28.70;;;;;;7545322;23;20093;-79
2023/09/08 15:16:23;;;;;;;7.80;2.58;;;34.50;29.30;;;;;;7569415;23;20216;-79
2023/09/08 15:19:24;;;;;;;3.88;2.80;;;34.50;28.80;;;;;;7570416;23;20480;-78
2023/09/08 15:22:26;;;;;;;8.40;3.08;;;34.40;28.90;;;;;;7595092;23;20347;-78
2023/09/08 15:25:26;;;;;;;10.63;2.90;;;34.40;28.90;;;;;;7598359;23;20012;-81
2023/09/08 15:28:27;;;;;;;7.18;2.40;;;34.40;29.00;;;;;;7569324;23;20598;-77
2023/09/08 15:31:28;;;;;;;3.90;2.67;;;34.40;29.00;;;;;;7570234;23;20122;-80
2023/09/08 15:34:29;;;;;;;4.10;2.40;;;34.40;29.10;;;;;;7545410;23;20018;-78
2023/09/08 15:37:30;;;;;;;5.57;2.90;;;34.30;29.10;;;;;;7570960;23;20025;-80
2023/09/08 15:40:31;;;;;;;5.38;2.38;;;34.30;29.60;;;;;;7571143;23;20320;-79
2023/09/08 15:43:32;;;;;;;7.07;2.80;;;34.30;29.20;;;;;;7597815;23;20628;-78